sensor_id;sensor_type;location;lat;lon;timestamp;temperature;humidity
36856;DHT22;22788;51.434;6.786;2023-02-28T00:01:05;4.50;99.90
36856;DHT22;22788;51.434;6.786;2023-02-28T00:03:31;4.50;99.90
36856;DHT22;22788;51.434;6.786;2023-02-28T00:05:57;4.50;99.90
36856;DHT22;22788;51.434;6.786;2023-02-28T00:08:25;4.50;99.90
36856;DHT22;22788;51.434;6.786;2023-02-28T00:10:51;4.60;99.90
36856;DHT22;22788;51.434;6.786;2023-02-28T00:13:17;4.60;99.90
36856;DHT22;22788;51.434;6.786;2023-02-28T00:15:43;4.50;99.90
36856;DHT22;22788;51.434;6.786;2023-02-28T00:18:09;4.50;99.90
36856;DHT22;22788;51.434;6.786;2023-02-28T00:20:35;4.50;99.90
36856;DHT22;22788;51.434;6.786;2023-02-28T00:23:01;4.50;99.90
36856;DHT22;22788;51.434;6.786;2023-02-28T00:25:28;4.50;99.90
36856;DHT22;22788;51.434;6.786;2023-02-28T00:27:54;4.40;99.90
36856;DHT22;22788;51.434;6.786;2023-02-28T00:30:22;4.40;99.90
36856;DHT22;22788;51.434;6.786;2023-02-28T00:32:49;4.40;99.90
36856;DHT22;22788;51.434;6.786;2023-02-28T00:35:15;4.40;99.90
36856;DHT22;22788;51.434;6.786;2023-02-28T00:37:42;4.50;99.90
36856;DHT22;22788;51.434;6.786;2023-02-28T00:40:09;4.40;99.90
36856;DHT22;22788;51.434;6.786;2023-02-28T00:42:37;4.40;99.90
36856;DHT22;22788;51.434;6.786;2023-02-28T00:45:04;4.40;99.90
36856;DHT22;22788;51.434;6.786;2023-02-28T00:47:30;4.40;99.90
36856;DHT22;22788;51.434;6.786;2023-02-28T00:49:56;4.30;99.90
36856;DHT22;22788;51.434;6.786;2023-02-28T00:52:22;4.40;99.90
36856;DHT22;22788;51.434;6.786;2023-02-28T00:54:48;4.30;99.90
36856;DHT22;22788;51.434;6.786;2023-02-28T00:57:14;4.30;99.90
36856;DHT22;22788;51.434;6.786;2023-02-28T00:59:42;4.30;99.90
36856;DHT22;22788;51.434;6.786;2023-02-28T01:02:08;4.30;99.90
36856;DHT22;22788;51.434;6.786;2023-02-28T01:04:34;4.30;99.90
36856;DHT22;22788;51.434;6.786;2023-02-28T01:07:00;4.20;99.90
36856;DHT22;22788;51.434;6.786;2023-02-28T01:09:26;4.30;99.90
36856;DHT22;22788;51.434;6.786;2023-02-28T01:11:52;4.20;99.90
36856;DHT22;22788;51.434;6.786;2023-02-28T01:14:18;4.10;99.90
36856;DHT22;22788;51.434;6.786;2023-02-28T01:16:46;4.20;99.90
36856;DHT22;22788;51.434;6.786;2023-02-28T01:19:12;4.20;99.90
36856;DHT22;22788;51.434;6.786;2023-02-28T01:21:38;4.10;99.90
36856;DHT22;22788;51.434;6.786;2023-02-28T01:24:05;4.00;99.90
36856;DHT22;22788;51.434;6.786;2023-02-28T01:26:31;3.90;99.90
36856;DHT22;22788;51.434;6.786;2023-02-28T01:28:57;4.00;99.90
36856;DHT22;22788;51.434;6.786;2023-02-28T01:31:24;4.00;99.90
36856;DHT22;22788;51.434;6.786;2023-02-28T01:33:51;4.10;99.90
36856;DHT22;22788;51.434;6.786;2023-02-28T01:36:19;4.00;99.90
36856;DHT22;22788;51.434;6.786;2023-02-28T01:38:45;3.90;99.90
36856;DHT22;22788;51.434;6.786;2023-02-28T01:41:16;3.80;99.90
36856;DHT22;22788;51.434;6.786;2023-02-28T01:43:55;3.90;99.90
36856;DHT22;22788;51.434;6.786;2023-02-28T01:46:22;4.10;99.90
36856;DHT22;22788;51.434;6.786;2023-02-28T01:48:53;4.00;99.90
36856;DHT22;22788;51.434;6.786;2023-02-28T01:51:22;4.10;99.90
36856;DHT22;22788;51.434;6.786;2023-02-28T01:53:54;4.00;99.90
36856;DHT22;22788;51.434;6.786;2023-02-28T01:56:25;3.90;99.90
36856;DHT22;22788;51.434;6.786;2023-02-28T01:58:53;3.90;99.90
36856;DHT22;22788;51.434;6.786;2023-02-28T02:01:20;4.00;99.90
36856;DHT22;22788;51.434;6.786;2023-02-28T02:03:47;3.90;99.90
36856;DHT22;22788;51.434;6.786;2023-02-28T02:06:14;3.90;99.90
36856;DHT22;22788;51.434;6.786;2023-02-28T02:08:40;3.80;99.90
36856;DHT22;22788;51.434;6.786;2023-02-28T02:11:10;3.90;99.90
36856;DHT22;22788;51.434;6.786;2023-02-28T02:13:47;3.90;99.90
36856;DHT22;22788;51.434;6.786;2023-02-28T02:16:27;4.00;99.90
36856;DHT22;22788;51.434;6.786;2023-02-28T02:19:05;3.90;99.90
36856;DHT22;22788;51.434;6.786;2023-02-28T02:22:00;3.90;99.90
36856;DHT22;22788;51.434;6.786;2023-02-28T02:27:39;3.90;99.90
36856;DHT22;22788;51.434;6.786;2023-02-28T02:33:30;4.00;99.90
36856;DHT22;22788;51.434;6.786;2023-02-28T02:36:06;4.00;99.90
36856;DHT22;22788;51.434;6.786;2023-02-28T02:38:35;4.10;99.90
36856;DHT22;22788;51.434;6.786;2023-02-28T02:41:08;4.10;99.90
36856;DHT22;22788;51.434;6.786;2023-02-28T02:43:43;4.00;99.90
36856;DHT22;22788;51.434;6.786;2023-02-28T02:46:15;4.00;99.90
36856;DHT22;22788;51.434;6.786;2023-02-28T02:48:44;4.10;99.90
36856;DHT22;22788;51.434;6.786;2023-02-28T02:51:15;4.10;99.90
36856;DHT22;22788;51.434;6.786;2023-02-28T02:53:46;4.10;99.90
36856;DHT22;22788;51.434;6.786;2023-02-28T02:56:13;4.10;99.90
36856;DHT22;22788;51.434;6.786;2023-02-28T02:58:42;4.10;99.90
36856;DHT22;22788;51.434;6.786;2023-02-28T03:01:12;4.10;99.90
36856;DHT22;22788;51.434;6.786;2023-02-28T03:03:40;4.10;99.90
36856;DHT22;22788;51.434;6.786;2023-02-28T03:06:06;4.10;99.90
36856;DHT22;22788;51.434;6.786;2023-02-28T03:08:36;3.90;99.90
36856;DHT22;22788;51.434;6.786;2023-02-28T03:11:04;4.00;99.90
36856;DHT22;22788;51.434;6.786;2023-02-28T03:13:42;4.00;99.90
36856;DHT22;22788;51.434;6.786;2023-02-28T03:16:26;3.90;99.90
36856;DHT22;22788;51.434;6.786;2023-02-28T03:18:59;4.00;99.90
36856;DHT22;22788;51.434;6.786;2023-02-28T03:21:34;4.00;99.90
36856;DHT22;22788;51.434;6.786;2023-02-28T03:24:05;4.10;99.90
36856;DHT22;22788;51.434;6.786;2023-02-28T03:26:38;4.00;99.90
36856;DHT22;22788;51.434;6.786;2023-02-28T03:29:08;4.00;99.90
36856;DHT22;22788;51.434;6.786;2023-02-28T03:31:39;4.00;99.90
36856;DHT22;22788;51.434;6.786;2023-02-28T03:34:11;4.00;99.90
36856;DHT22;22788;51.434;6.786;2023-02-28T03:36:42;4.10;99.90
36856;DHT22;22788;51.434;6.786;2023-02-28T03:39:14;4.00;99.90
36856;DHT22;22788;51.434;6.786;2023-02-28T03:41:43;4.00;99.90
36856;DHT22;22788;51.434;6.786;2023-02-28T03:44:15;4.00;99.90
36856;DHT22;22788;51.434;6.786;2023-02-28T03:46:46;4.00;99.90
36856;DHT22;22788;51.434;6.786;2023-02-28T03:49:16;3.90;99.90
36856;DHT22;22788;51.434;6.786;2023-02-28T03:51:46;3.90;99.90
36856;DHT22;22788;51.434;6.786;2023-02-28T03:54:17;3.80;99.90
36856;DHT22;22788;51.434;6.786;2023-02-28T03:56:49;3.80;99.90
36856;DHT22;22788;51.434;6.786;2023-02-28T03:59:20;3.80;99.90
36856;DHT22;22788;51.434;6.786;2023-02-28T04:01:48;3.80;99.90
36856;DHT22;22788;51.434;6.786;2023-02-28T04:04:15;3.90;99.90
36856;DHT22;22788;51.434;6.786;2023-02-28T04:06:44;3.80;99.90
36856;DHT22;22788;51.434;6.786;2023-02-28T04:09:12;3.90;99.90
36856;DHT22;22788;51.434;6.786;2023-02-28T04:11:41;3.90;99.90
36856;DHT22;22788;51.434;6.786;2023-02-28T04:14:08;3.90;99.90
36856;DHT22;22788;51.434;6.786;2023-02-28T04:16:36;4.00;99.90
36856;DHT22;22788;51.434;6.786;2023-02-28T04:19:04;4.00;99.90
36856;DHT22;22788;51.434;6.786;2023-02-28T04:21:31;3.90;99.90
36856;DHT22;22788;51.434;6.786;2023-02-28T04:23:57;4.00;99.90
36856;DHT22;22788;51.434;6.786;2023-02-28T04:26:23;3.90;99.90
36856;DHT22;22788;51.434;6.786;2023-02-28T04:28:51;4.00;99.90
36856;DHT22;22788;51.434;6.786;2023-02-28T04:31:17;4.00;99.90
36856;DHT22;22788;51.434;6.786;2023-02-28T04:33:43;3.90;99.90
36856;DHT22;22788;51.434;6.786;2023-02-28T04:36:09;3.90;99.90
36856;DHT22;22788;51.434;6.786;2023-02-28T04:38:36;3.90;99.90
36856;DHT22;22788;51.434;6.786;2023-02-28T04:41:03;3.80;99.90
36856;DHT22;22788;51.434;6.786;2023-02-28T04:43:30;3.80;99.90
36856;DHT22;22788;51.434;6.786;2023-02-28T04:46:02;3.90;99.90
36856;DHT22;22788;51.434;6.786;2023-02-28T04:48:29;3.90;99.90
36856;DHT22;22788;51.434;6.786;2023-02-28T04:51:00;3.90;99.90
36856;DHT22;22788;51.434;6.786;2023-02-28T04:53:26;3.90;99.90
36856;DHT22;22788;51.434;6.786;2023-02-28T04:55:52;3.90;99.90
36856;DHT22;22788;51.434;6.786;2023-02-28T04:58:18;3.80;99.90
36856;DHT22;22788;51.434;6.786;2023-02-28T05:00:44;3.80;99.90
36856;DHT22;22788;51.434;6.786;2023-02-28T05:03:12;3.80;99.90
36856;DHT22;22788;51.434;6.786;2023-02-28T05:05:38;3.80;99.90
36856;DHT22;22788;51.434;6.786;2023-02-28T05:08:04;3.80;99.90
36856;DHT22;22788;51.434;6.786;2023-02-28T05:10:30;3.80;99.90
36856;DHT22;22788;51.434;6.786;2023-02-28T05:12:56;3.70;99.90
36856;DHT22;22788;51.434;6.786;2023-02-28T05:15:22;3.70;99.90
36856;DHT22;22788;51.434;6.786;2023-02-28T05:17:48;3.70;99.90
36856;DHT22;22788;51.434;6.786;2023-02-28T05:20:16;3.80;99.90
36856;DHT22;22788;51.434;6.786;2023-02-28T05:22:43;3.80;99.90
36856;DHT22;22788;51.434;6.786;2023-02-28T05:25:11;3.70;99.90
36856;DHT22;22788;51.434;6.786;2023-02-28T05:27:38;3.70;99.90
36856;DHT22;22788;51.434;6.786;2023-02-28T05:30:05;3.70;99.90
36856;DHT22;22788;51.434;6.786;2023-02-28T05:32:31;3.70;99.90
36856;DHT22;22788;51.434;6.786;2023-02-28T05:34:57;3.70;99.90
36856;DHT22;22788;51.434;6.786;2023-02-28T05:37:24;3.60;99.90
36856;DHT22;22788;51.434;6.786;2023-02-28T05:39:51;3.70;99.90
36856;DHT22;22788;51.434;6.786;2023-02-28T05:42:17;3.60;99.90
36856;DHT22;22788;51.434;6.786;2023-02-28T05:44:43;3.70;99.90
36856;DHT22;22788;51.434;6.786;2023-02-28T05:47:09;3.70;99.90
36856;DHT22;22788;51.434;6.786;2023-02-28T05:49:35;3.60;99.90
36856;DHT22;22788;51.434;6.786;2023-02-28T05:52:01;3.60;99.90
36856;DHT22;22788;51.434;6.786;2023-02-28T05:54:28;3.60;99.90
36856;DHT22;22788;51.434;6.786;2023-02-28T05:56:54;3.60;99.90
36856;DHT22;22788;51.434;6.786;2023-02-28T05:59:20;3.50;99.90
36856;DHT22;22788;51.434;6.786;2023-02-28T06:01:46;3.50;99.90
36856;DHT22;22788;51.434;6.786;2023-02-28T06:04:12;3.50;99.90
36856;DHT22;22788;51.434;6.786;2023-02-28T06:06:38;3.50;99.90
36856;DHT22;22788;51.434;6.786;2023-02-28T06:09:05;3.40;99.90
36856;DHT22;22788;51.434;6.786;2023-02-28T06:11:33;3.50;99.90
36856;DHT22;22788;51.434;6.786;2023-02-28T06:14:00;3.50;99.90
36856;DHT22;22788;51.434;6.786;2023-02-28T06:16:26;3.50;99.90
36856;DHT22;22788;51.434;6.786;2023-02-28T06:18:53;3.40;99.90
36856;DHT22;22788;51.434;6.786;2023-02-28T06:21:19;3.40;99.90
36856;DHT22;22788;51.434;6.786;2023-02-28T06:23:45;3.40;99.90
36856;DHT22;22788;51.434;6.786;2023-02-28T06:26:11;3.30;99.90
36856;DHT22;22788;51.434;6.786;2023-02-28T06:28:39;3.20;99.90
36856;DHT22;22788;51.434;6.786;2023-02-28T06:31:09;3.20;99.90
36856;DHT22;22788;51.434;6.786;2023-02-28T06:33:36;3.10;99.90
36856;DHT22;22788;51.434;6.786;2023-02-28T06:36:04;3.20;99.90
36856;DHT22;22788;51.434;6.786;2023-02-28T06:38:31;3.30;99.90
36856;DHT22;22788;51.434;6.786;2023-02-28T06:40:59;3.30;99.90
36856;DHT22;22788;51.434;6.786;2023-02-28T06:43:27;3.30;99.90
36856;DHT22;22788;51.434;6.786;2023-02-28T06:45:55;3.20;99.90
36856;DHT22;22788;51.434;6.786;2023-02-28T06:48:22;3.30;99.90
36856;DHT22;22788;51.434;6.786;2023-02-28T06:50:48;3.30;99.90
36856;DHT22;22788;51.434;6.786;2023-02-28T06:53:14;3.30;99.90
36856;DHT22;22788;51.434;6.786;2023-02-28T06:55:40;3.30;99.90
36856;DHT22;22788;51.434;6.786;2023-02-28T06:58:06;3.40;99.90
36856;DHT22;22788;51.434;6.786;2023-02-28T07:00:32;3.50;99.90
36856;DHT22;22788;51.434;6.786;2023-02-28T07:03:00;3.20;99.90
36856;DHT22;22788;51.434;6.786;2023-02-28T07:05:26;3.30;99.90
36856;DHT22;22788;51.434;6.786;2023-02-28T07:07:52;3.30;99.90
36856;DHT22;22788;51.434;6.786;2023-02-28T07:10:18;3.30;99.90
36856;DHT22;22788;51.434;6.786;2023-02-28T07:12:44;3.40;99.90
36856;DHT22;22788;51.434;6.786;2023-02-28T07:15:10;3.40;99.90
36856;DHT22;22788;51.434;6.786;2023-02-28T07:17:36;3.30;99.90
36856;DHT22;22788;51.434;6.786;2023-02-28T07:20:04;3.20;99.90
36856;DHT22;22788;51.434;6.786;2023-02-28T07:22:30;3.20;99.90
36856;DHT22;22788;51.434;6.786;2023-02-28T07:24:56;3.30;99.90
36856;DHT22;22788;51.434;6.786;2023-02-28T07:27:22;3.30;99.90
36856;DHT22;22788;51.434;6.786;2023-02-28T07:29:48;3.40;99.90
36856;DHT22;22788;51.434;6.786;2023-02-28T07:32:15;3.40;99.90
36856;DHT22;22788;51.434;6.786;2023-02-28T07:34:41;3.30;99.90
36856;DHT22;22788;51.434;6.786;2023-02-28T07:37:08;3.30;99.90
36856;DHT22;22788;51.434;6.786;2023-02-28T07:39:34;3.30;99.90
36856;DHT22;22788;51.434;6.786;2023-02-28T07:42:00;3.40;99.90
36856;DHT22;22788;51.434;6.786;2023-02-28T07:44:29;3.20;99.90
36856;DHT22;22788;51.434;6.786;2023-02-28T07:46:55;3.20;99.90
36856;DHT22;22788;51.434;6.786;2023-02-28T07:49:21;3.00;99.90
36856;DHT22;22788;51.434;6.786;2023-02-28T07:51:47;3.20;99.90
36856;DHT22;22788;51.434;6.786;2023-02-28T07:54:15;3.00;99.90
36856;DHT22;22788;51.434;6.786;2023-02-28T07:56:41;3.00;99.90
36856;DHT22;22788;51.434;6.786;2023-02-28T07:59:07;3.10;99.90
36856;DHT22;22788;51.434;6.786;2023-02-28T08:01:33;3.20;99.90
36856;DHT22;22788;51.434;6.786;2023-02-28T08:03:59;3.30;99.90
36856;DHT22;22788;51.434;6.786;2023-02-28T08:06:25;3.30;99.90
36856;DHT22;22788;51.434;6.786;2023-02-28T08:08:54;3.20;99.90
36856;DHT22;22788;51.434;6.786;2023-02-28T08:11:22;3.20;99.90
36856;DHT22;22788;51.434;6.786;2023-02-28T08:13:48;3.20;99.90
36856;DHT22;22788;51.434;6.786;2023-02-28T08:16:14;3.00;99.90
36856;DHT22;22788;51.434;6.786;2023-02-28T08:18:40;3.20;99.90
36856;DHT22;22788;51.434;6.786;2023-02-28T08:21:07;3.30;99.90
36856;DHT22;22788;51.434;6.786;2023-02-28T08:23:33;3.20;99.90
36856;DHT22;22788;51.434;6.786;2023-02-28T08:25:59;3.20;99.90
36856;DHT22;22788;51.434;6.786;2023-02-28T08:28:27;3.20;99.90
36856;DHT22;22788;51.434;6.786;2023-02-28T08:30:53;3.20;99.90
36856;DHT22;22788;51.434;6.786;2023-02-28T08:33:19;3.40;99.90
36856;DHT22;22788;51.434;6.786;2023-02-28T08:35:45;3.30;99.90
36856;DHT22;22788;51.434;6.786;2023-02-28T08:38:11;3.30;99.90
36856;DHT22;22788;51.434;6.786;2023-02-28T08:40:37;3.30;99.90
36856;DHT22;22788;51.434;6.786;2023-02-28T08:43:03;3.10;99.90
36856;DHT22;22788;51.434;6.786;2023-02-28T08:45:30;3.30;99.90
36856;DHT22;22788;51.434;6.786;2023-02-28T08:47:56;3.30;99.90
36856;DHT22;22788;51.434;6.786;2023-02-28T08:50:22;3.20;99.90
36856;DHT22;22788;51.434;6.786;2023-02-28T08:52:48;3.10;99.90
36856;DHT22;22788;51.434;6.786;2023-02-28T08:55:15;3.30;99.90
36856;DHT22;22788;51.434;6.786;2023-02-28T08:57:41;3.20;99.90
36856;DHT22;22788;51.434;6.786;2023-02-28T09:00:08;3.20;99.90
36856;DHT22;22788;51.434;6.786;2023-02-28T09:02:36;3.10;99.90
36856;DHT22;22788;51.434;6.786;2023-02-28T09:05:02;3.30;99.90
36856;DHT22;22788;51.434;6.786;2023-02-28T09:07:28;3.30;99.90
36856;DHT22;22788;51.434;6.786;2023-02-28T09:09:54;3.40;99.90
36856;DHT22;22788;51.434;6.786;2023-02-28T09:12:20;3.40;99.90
36856;DHT22;22788;51.434;6.786;2023-02-28T09:14:47;3.40;99.90
36856;DHT22;22788;51.434;6.786;2023-02-28T09:17:13;3.50;99.90
36856;DHT22;22788;51.434;6.786;2023-02-28T09:19:40;3.40;99.90
36856;DHT22;22788;51.434;6.786;2023-02-28T09:22:06;3.40;99.90
36856;DHT22;22788;51.434;6.786;2023-02-28T09:24:32;3.50;99.90
36856;DHT22;22788;51.434;6.786;2023-02-28T09:26:58;3.50;99.90
36856;DHT22;22788;51.434;6.786;2023-02-28T09:29:24;3.50;99.90
36856;DHT22;22788;51.434;6.786;2023-02-28T09:31:50;3.50;99.90
36856;DHT22;22788;51.434;6.786;2023-02-28T09:34:16;3.40;99.90
36856;DHT22;22788;51.434;6.786;2023-02-28T09:36:43;3.40;99.90
36856;DHT22;22788;51.434;6.786;2023-02-28T09:39:09;3.60;99.90
36856;DHT22;22788;51.434;6.786;2023-02-28T09:41:38;3.60;99.90
36856;DHT22;22788;51.434;6.786;2023-02-28T09:44:05;3.60;99.90
36856;DHT22;22788;51.434;6.786;2023-02-28T09:46:35;3.50;99.90
36856;DHT22;22788;51.434;6.786;2023-02-28T09:49:06;3.50;99.90
36856;DHT22;22788;51.434;6.786;2023-02-28T09:51:40;3.50;99.90
36856;DHT22;22788;51.434;6.786;2023-02-28T09:54:14;3.50;99.90
36856;DHT22;22788;51.434;6.786;2023-02-28T09:56:41;3.60;99.90
36856;DHT22;22788;51.434;6.786;2023-02-28T09:59:13;3.70;99.90
36856;DHT22;22788;51.434;6.786;2023-02-28T10:01:47;3.60;99.90
36856;DHT22;22788;51.434;6.786;2023-02-28T10:04:22;3.70;99.90
36856;DHT22;22788;51.434;6.786;2023-02-28T10:06:53;3.60;99.90
36856;DHT22;22788;51.434;6.786;2023-02-28T10:09:22;3.70;99.90
36856;DHT22;22788;51.434;6.786;2023-02-28T10:11:52;3.80;99.90
36856;DHT22;22788;51.434;6.786;2023-02-28T10:14:21;3.80;99.90
36856;DHT22;22788;51.434;6.786;2023-02-28T10:16:50;3.80;99.90
36856;DHT22;22788;51.434;6.786;2023-02-28T10:19:21;3.70;99.90
36856;DHT22;22788;51.434;6.786;2023-02-28T10:21:51;3.70;99.90
36856;DHT22;22788;51.434;6.786;2023-02-28T10:24:27;3.70;99.90
36856;DHT22;22788;51.434;6.786;2023-02-28T10:26:59;3.70;99.50
36856;DHT22;22788;51.434;6.786;2023-02-28T10:29:26;3.60;97.80
36856;DHT22;22788;51.434;6.786;2023-02-28T10:31:52;3.50;99.90
36856;DHT22;22788;51.434;6.786;2023-02-28T10:34:18;3.60;99.90
36856;DHT22;22788;51.434;6.786;2023-02-28T10:36:44;3.60;98.40
36856;DHT22;22788;51.434;6.786;2023-02-28T10:39:48;3.70;99.90
36856;DHT22;22788;51.434;6.786;2023-02-28T10:42:25;3.70;99.90
36856;DHT22;22788;51.434;6.786;2023-02-28T10:45:11;3.90;99.90
36856;DHT22;22788;51.434;6.786;2023-02-28T10:47:48;3.80;99.90
36856;DHT22;22788;51.434;6.786;2023-02-28T10:50:34;3.80;99.90
36856;DHT22;22788;51.434;6.786;2023-02-28T10:53:14;3.90;99.90
36856;DHT22;22788;51.434;6.786;2023-02-28T10:55:43;3.90;97.30
36856;DHT22;22788;51.434;6.786;2023-02-28T10:58:21;3.90;99.90
36856;DHT22;22788;51.434;6.786;2023-02-28T11:00:47;3.80;99.90
36856;DHT22;22788;51.434;6.786;2023-02-28T11:03:24;3.90;99.80
36856;DHT22;22788;51.434;6.786;2023-02-28T11:05:51;3.90;99.90
36856;DHT22;22788;51.434;6.786;2023-02-28T11:08:18;4.00;99.90
36856;DHT22;22788;51.434;6.786;2023-02-28T11:10:47;4.00;99.90
36856;DHT22;22788;51.434;6.786;2023-02-28T11:13:17;4.00;99.90
36856;DHT22;22788;51.434;6.786;2023-02-28T11:15:51;4.10;98.40
36856;DHT22;22788;51.434;6.786;2023-02-28T11:18:25;4.20;99.50
36856;DHT22;22788;51.434;6.786;2023-02-28T11:20:54;4.30;99.90
36856;DHT22;22788;51.434;6.786;2023-02-28T11:23:21;4.30;97.80
36856;DHT22;22788;51.434;6.786;2023-02-28T11:25:52;4.30;98.70
36856;DHT22;22788;51.434;6.786;2023-02-28T11:28:27;4.20;99.90
36856;DHT22;22788;51.434;6.786;2023-02-28T11:31:03;4.10;99.90
36856;DHT22;22788;51.434;6.786;2023-02-28T11:33:30;4.10;99.90
36856;DHT22;22788;51.434;6.786;2023-02-28T11:35:59;4.20;99.90
36856;DHT22;22788;51.434;6.786;2023-02-28T11:38:26;4.20;95.20
36856;DHT22;22788;51.434;6.786;2023-02-28T11:41:10;4.20;98.30
36856;DHT22;22788;51.434;6.786;2023-02-28T11:43:51;4.20;99.90
36856;DHT22;22788;51.434;6.786;2023-02-28T11:46:25;4.30;96.80
36856;DHT22;22788;51.434;6.786;2023-02-28T11:48:59;4.20;99.60
36856;DHT22;22788;51.434;6.786;2023-02-28T11:51:32;4.20;99.90
36856;DHT22;22788;51.434;6.786;2023-02-28T11:54:17;4.30;96.20
36856;DHT22;22788;51.434;6.786;2023-02-28T11:56:52;4.20;99.50
36856;DHT22;22788;51.434;6.786;2023-02-28T11:59:36;4.30;95.70
36856;DHT22;22788;51.434;6.786;2023-02-28T12:02:24;4.30;93.80
36856;DHT22;22788;51.434;6.786;2023-02-28T12:05:13;4.20;99.00
36856;DHT22;22788;51.434;6.786;2023-02-28T12:07:50;4.20;99.90
36856;DHT22;22788;51.434;6.786;2023-02-28T12:10:23;4.30;99.90
36856;DHT22;22788;51.434;6.786;2023-02-28T12:13:01;4.30;99.40
36856;DHT22;22788;51.434;6.786;2023-02-28T12:15:42;4.40;98.70
36856;DHT22;22788;51.434;6.786;2023-02-28T12:18:26;4.30;97.40
36856;DHT22;22788;51.434;6.786;2023-02-28T12:20:58;4.30;99.90
36856;DHT22;22788;51.434;6.786;2023-02-28T12:23:42;4.40;98.10
36856;DHT22;22788;51.434;6.786;2023-02-28T12:26:16;4.50;99.90
36856;DHT22;22788;51.434;6.786;2023-02-28T12:28:49;4.40;99.60
36856;DHT22;22788;51.434;6.786;2023-02-28T12:31:19;4.40;99.80
36856;DHT22;22788;51.434;6.786;2023-02-28T12:33:50;4.40;98.70
36856;DHT22;22788;51.434;6.786;2023-02-28T12:36:19;4.50;99.90
36856;DHT22;22788;51.434;6.786;2023-02-28T12:38:48;4.60;98.30
36856;DHT22;22788;51.434;6.786;2023-02-28T12:41:17;4.60;99.90
36856;DHT22;22788;51.434;6.786;2023-02-28T12:43:48;4.60;96.00
36856;DHT22;22788;51.434;6.786;2023-02-28T12:46:19;4.60;99.90
36856;DHT22;22788;51.434;6.786;2023-02-28T12:48:50;4.50;95.40
36856;DHT22;22788;51.434;6.786;2023-02-28T12:51:18;4.60;97.60
36856;DHT22;22788;51.434;6.786;2023-02-28T12:53:54;4.60;98.30
36856;DHT22;22788;51.434;6.786;2023-02-28T12:56:30;4.60;99.90
36856;DHT22;22788;51.434;6.786;2023-02-28T12:59:04;4.60;97.80
36856;DHT22;22788;51.434;6.786;2023-02-28T13:02:00;4.60;95.40
36856;DHT22;22788;51.434;6.786;2023-02-28T13:04:55;4.70;99.70
36856;DHT22;22788;51.434;6.786;2023-02-28T13:07:42;4.60;99.90
36856;DHT22;22788;51.434;6.786;2023-02-28T13:10:16;4.60;98.80
36856;DHT22;22788;51.434;6.786;2023-02-28T13:12:48;4.60;99.90
36856;DHT22;22788;51.434;6.786;2023-02-28T13:15:20;4.60;96.20
36856;DHT22;22788;51.434;6.786;2023-02-28T13:17:49;4.60;98.10
36856;DHT22;22788;51.434;6.786;2023-02-28T13:20:19;4.60;98.10
36856;DHT22;22788;51.434;6.786;2023-02-28T15:47:54;5.10;97.80
36856;DHT22;22788;51.434;6.786;2023-02-28T15:50:21;5.00;99.90
36856;DHT22;22788;51.434;6.786;2023-02-28T15:52:47;4.90;99.90
36856;DHT22;22788;51.434;6.786;2023-02-28T15:55:19;4.80;99.90
36856;DHT22;22788;51.434;6.786;2023-02-28T15:57:50;4.80;99.70
36856;DHT22;22788;51.434;6.786;2023-02-28T16:00:20;4.80;99.90
36856;DHT22;22788;51.434;6.786;2023-02-28T16:02:47;4.80;99.80
36856;DHT22;22788;51.434;6.786;2023-02-28T16:05:21;4.80;99.90
36856;DHT22;22788;51.434;6.786;2023-02-28T16:07:47;4.70;97.40
36856;DHT22;22788;51.434;6.786;2023-02-28T16:10:13;4.80;99.90
36856;DHT22;22788;51.434;6.786;2023-02-28T16:12:41;4.70;98.40
36856;DHT22;22788;51.434;6.786;2023-02-28T16:15:17;4.70;99.00
36856;DHT22;22788;51.434;6.786;2023-02-28T16:17:43;4.70;99.90
36856;DHT22;22788;51.434;6.786;2023-02-28T16:20:13;4.80;99.90
36856;DHT22;22788;51.434;6.786;2023-02-28T16:22:39;4.90;99.90
36856;DHT22;22788;51.434;6.786;2023-02-28T16:25:06;4.80;99.90
36856;DHT22;22788;51.434;6.786;2023-02-28T16:27:36;4.80;99.90
36856;DHT22;22788;51.434;6.786;2023-02-28T16:30:06;4.80;99.90
36856;DHT22;22788;51.434;6.786;2023-02-28T16:32:35;4.80;99.90
36856;DHT22;22788;51.434;6.786;2023-02-28T16:35:01;4.80;99.90
36856;DHT22;22788;51.434;6.786;2023-02-28T16:37:27;4.80;99.90
36856;DHT22;22788;51.434;6.786;2023-02-28T16:39:53;4.70;99.90
36856;DHT22;22788;51.434;6.786;2023-02-28T16:42:22;4.70;99.90
36856;DHT22;22788;51.434;6.786;2023-02-28T16:44:48;4.80;99.90
36856;DHT22;22788;51.434;6.786;2023-02-28T16:47:16;4.80;99.90
36856;DHT22;22788;51.434;6.786;2023-02-28T16:49:42;4.80;99.90
36856;DHT22;22788;51.434;6.786;2023-02-28T16:52:08;4.80;99.90
36856;DHT22;22788;51.434;6.786;2023-02-28T16:54:34;4.90;99.90
36856;DHT22;22788;51.434;6.786;2023-02-28T16:57:00;4.80;99.90
36856;DHT22;22788;51.434;6.786;2023-02-28T16:59:27;4.80;99.90
36856;DHT22;22788;51.434;6.786;2023-02-28T17:01:54;4.80;99.90
36856;DHT22;22788;51.434;6.786;2023-02-28T17:04:22;4.70;99.90
36856;DHT22;22788;51.434;6.786;2023-02-28T17:06:48;4.70;99.90
36856;DHT22;22788;51.434;6.786;2023-02-28T17:09:16;4.80;99.90
36856;DHT22;22788;51.434;6.786;2023-02-28T17:11:42;4.80;99.90
36856;DHT22;22788;51.434;6.786;2023-02-28T17:14:08;4.80;99.90
36856;DHT22;22788;51.434;6.786;2023-02-28T17:16:36;4.70;99.90
36856;DHT22;22788;51.434;6.786;2023-02-28T17:19:04;4.70;99.90
36856;DHT22;22788;51.434;6.786;2023-02-28T17:21:33;4.70;99.90
36856;DHT22;22788;51.434;6.786;2023-02-28T17:23:59;4.80;99.90
36856;DHT22;22788;51.434;6.786;2023-02-28T17:26:26;4.70;99.90
36856;DHT22;22788;51.434;6.786;2023-02-28T17:28:52;4.70;99.90
36856;DHT22;22788;51.434;6.786;2023-02-28T17:31:24;4.70;99.90
36856;DHT22;22788;51.434;6.786;2023-02-28T17:33:51;4.70;99.90
36856;DHT22;22788;51.434;6.786;2023-02-28T17:36:20;4.70;99.90
36856;DHT22;22788;51.434;6.786;2023-02-28T17:38:48;4.70;99.90
36856;DHT22;22788;51.434;6.786;2023-02-28T17:41:14;4.70;99.90
36856;DHT22;22788;51.434;6.786;2023-02-28T17:43:40;4.70;99.90
36856;DHT22;22788;51.434;6.786;2023-02-28T17:46:14;4.60;99.90
36856;DHT22;22788;51.434;6.786;2023-02-28T17:48:43;4.60;99.90
36856;DHT22;22788;51.434;6.786;2023-02-28T17:51:11;4.60;99.90
36856;DHT22;22788;51.434;6.786;2023-02-28T17:53:38;4.70;99.90
36856;DHT22;22788;51.434;6.786;2023-02-28T17:56:11;4.60;99.90
36856;DHT22;22788;51.434;6.786;2023-02-28T17:58:37;4.70;99.90
36856;DHT22;22788;51.434;6.786;2023-02-28T18:01:04;4.70;99.90
36856;DHT22;22788;51.434;6.786;2023-02-28T18:03:30;4.70;99.90
36856;DHT22;22788;51.434;6.786;2023-02-28T18:05:56;4.70;99.90
36856;DHT22;22788;51.434;6.786;2023-02-28T18:08:22;4.70;99.90
36856;DHT22;22788;51.434;6.786;2023-02-28T18:10:48;4.70;99.90
36856;DHT22;22788;51.434;6.786;2023-02-28T18:13:15;4.70;99.90
36856;DHT22;22788;51.434;6.786;2023-02-28T18:15:42;4.70;99.90
36856;DHT22;22788;51.434;6.786;2023-02-28T18:18:08;4.80;99.90
36856;DHT22;22788;51.434;6.786;2023-02-28T18:20:34;4.70;99.90
36856;DHT22;22788;51.434;6.786;2023-02-28T18:23:01;4.70;99.90
36856;DHT22;22788;51.434;6.786;2023-02-28T18:25:27;4.60;99.90
36856;DHT22;22788;51.434;6.786;2023-02-28T18:27:53;4.60;99.90